Time;durP1;ratioP1;P1;durP2;ratioP2;P2;SDS_P1;SDS_P2;PMS_P1;PMS_P2;Temp;Humidity;BMP_temperature;BMP_pressure;BME280_temperature;BME280_humidity;BME280_pressure;Samples;Min_cycle;Max_cycle;Signal;HPM_P1;HPM_P2
2023/04/26 00:10:41;;;;;;;14.77;6.28;;;;;;;3.15;91.76;101119.84;4937041;29;20518;-79
2023/04/26 00:13:08;;;;;;;18.38;6.22;;;;;;;3.16;91.71;101128.44;4939583;29;20130;-79
2023/04/26 00:15:35;;;;;;;15.07;5.70;;;;;;;3.19;91.96;101123.06;4940569;29;20055;-80
2023/04/26 00:18:02;;;;;;;11.32;5.97;;;;;;;3.13;92.21;101120.88;4941131;29;20062;-81
2023/04/26 00:20:29;;;;;;;10.45;5.28;;;;;;;3.08;92.16;101115.97;4941736;29;20051;-80
2023/04/26 00:22:56;;;;;;;14.73;5.90;;;;;;;3.00;92.41;101118.22;4941373;29;20099;-80
2023/04/26 00:25:22;;;;;;;19.60;6.15;;;;;;;2.99;92.13;101125.13;4941163;29;20134;-79
2023/04/26 00:27:52;;;;;;;17.80;5.45;;;;;;;3.00;92.63;101124.22;4942798;29;20116;-79
2023/04/26 00:30:19;;;;;;;13.00;5.45;;;;;;;2.95;92.60;101112.50;4943419;29;20047;-79
2023/04/26 00:32:45;;;;;;;12.68;6.35;;;;;;;2.94;92.89;101116.84;4938838;29;20044;-79
2023/04/26 00:35:12;;;;;;;14.15;5.95;;;;;;;2.97;93.05;101116.66;4938659;29;20054;-79
2023/04/26 00:37:40;;;;;;;15.52;6.10;;;;;;;2.94;93.10;101119.41;4939048;29;20432;-79
2023/04/26 00:40:08;;;;;;;9.20;5.72;;;;;;;2.96;93.74;101115.00;4939102;29;20055;-79
2023/04/26 00:42:34;;;;;;;13.65;5.63;;;;;;;2.92;93.67;101102.34;4938329;29;20123;-79
2023/04/26 00:45:02;;;;;;;12.30;5.85;;;;;;;2.97;93.74;101106.31;4937150;29;20427;-77
2023/04/26 00:47:30;;;;;;;15.63;6.32;;;;;;;2.94;93.85;101106.50;5019913;23;20050;-80
2023/04/26 00:49:57;;;;;;;10.00;5.60;;;;;;;3.06;93.50;101104.06;5013291;28;20049;-80
2023/04/26 00:52:24;;;;;;;12.05;5.60;;;;;;;3.08;93.16;101102.22;5007889;28;20051;-79
2023/04/26 00:54:51;;;;;;;12.55;5.93;;;;;;;3.09;93.61;101102.13;5011615;28;20077;-79
2023/04/26 00:57:18;;;;;;;16.63;5.97;;;;;;;3.07;93.65;101105.75;5002759;28;20081;-79
2023/04/26 00:59:45;;;;;;;10.95;5.65;;;;;;;3.11;92.88;101107.19;4996086;28;20245;-79
2023/04/26 01:02:13;;;;;;;9.25;5.60;;;;;;;3.08;93.32;101103.06;5000528;28;20082;-79
2023/04/26 01:04:40;;;;;;;14.68;6.32;;;;;;;3.05;93.63;101099.84;4999578;28;20055;-79
2023/04/26 01:07:08;;;;;;;13.00;5.82;;;;;;;3.02;93.72;101108.59;5002073;28;20047;-79
2023/04/26 01:09:34;;;;;;;10.40;6.07;;;;;;;3.05;93.32;101112.75;4999565;28;20050;-79
2023/04/26 01:12:01;;;;;;;14.05;6.30;;;;;;;2.99;94.04;101109.63;5003577;28;20076;-79
2023/04/26 01:14:29;;;;;;;16.83;6.28;;;;;;;2.98;93.71;101113.13;5003471;28;20073;-80
2023/04/26 01:16:57;;;;;;;10.60;6.30;;;;;;;2.98;93.81;101109.72;5005895;28;20061;-80
2023/04/26 01:19:25;;;;;;;15.15;6.78;;;;;;;3.10;93.79;101115.88;4996459;28;20103;-80
2023/04/26 01:21:51;;;;;;;14.90;6.95;;;;;;;3.04;94.01;101109.34;5000013;28;20051;-80
2023/04/26 01:24:19;;;;;;;10.90;6.82;;;;;;;3.08;93.56;101115.97;4995064;28;20053;-80
2023/04/26 01:26:46;;;;;;;15.15;6.82;;;;;;;2.99;93.84;101109.63;4996801;28;20494;-80
2023/04/26 01:29:16;;;;;;;15.07;6.80;;;;;;;3.04;93.61;101121.44;4991393;28;20449;-80
2023/04/26 01:31:44;;;;;;;14.02;7.22;;;;;;;2.96;94.04;101120.16;5002573;28;20089;-80
2023/04/26 01:34:11;;;;;;;15.52;7.28;;;;;;;2.85;94.21;101122.56;4992547;28;20110;-79
2023/04/26 01:36:37;;;;;;;14.88;6.78;;;;;;;2.84;94.40;101115.75;4992950;28;20055;-80
2023/04/26 01:39:04;;;;;;;15.63;6.90;;;;;;;2.83;94.60;101123.63;4990670;28;20060;-79
2023/04/26 01:41:32;;;;;;;13.65;7.30;;;;;;;2.86;94.55;101120.81;4990166;28;20057;-79
2023/04/26 01:43:59;;;;;;;19.33;7.82;;;;;;;2.79;94.91;101120.38;4998460;28;20077;-79
2023/04/26 01:46:26;;;;;;;13.95;7.07;;;;;;;2.81;95.36;101131.47;4993442;28;20075;-78
2023/04/26 01:48:53;;;;;;;14.98;7.07;;;;;;;2.83;95.25;101121.03;5003401;28;20050;-79
2023/04/26 01:51:20;;;;;;;15.45;7.18;;;;;;;2.79;95.34;101117.81;4994099;28;20047;-79
2023/04/26 01:53:47;;;;;;;10.93;7.25;;;;;;;2.72;95.14;101115.69;4994637;28;20544;-79
2023/04/26 01:56:13;;;;;;;11.60;6.55;;;;;;;2.71;95.71;101112.28;4992319;28;20085;-79
2023/04/26 01:58:41;;;;;;;19.25;7.45;;;;;;;2.73;95.45;101118.19;4993201;28;20051;-79
2023/04/26 02:01:10;;;;;;;15.07;7.63;;;;;;;2.69;95.72;101121.88;5000750;28;20152;-79
2023/04/26 02:03:36;;;;;;;16.23;6.97;;;;;;;2.63;95.85;101107.56;4990563;28;20565;-79
2023/04/26 02:06:03;;;;;;;14.27;7.40;;;;;;;2.62;95.90;101118.00;4989624;28;20109;-80
2023/04/26 02:08:30;;;;;;;16.38;7.57;;;;;;;2.55;96.12;101119.28;4990923;28;20113;-79
2023/04/26 02:10:57;;;;;;;19.88;7.45;;;;;;;2.63;96.58;101117.06;4994133;28;20057;-79
2023/04/26 02:13:24;;;;;;;15.10;7.40;;;;;;;2.55;96.72;101109.78;4990684;28;20134;-79
2023/04/26 02:15:52;;;;;;;12.80;7.07;;;;;;;2.57;96.58;101110.53;5005136;28;20054;-79
2023/04/26 02:18:20;;;;;;;17.92;7.93;;;;;;;2.55;96.64;101114.13;4984356;28;20086;-79
2023/04/26 02:20:47;;;;;;;18.20;8.07;;;;;;;2.55;96.88;101108.94;4994456;28;20050;-79
2023/04/26 02:23:14;;;;;;;17.00;7.30;;;;;;;2.52;96.98;101109.13;4989163;28;20196;-80
2023/04/26 02:25:41;;;;;;;17.25;7.88;;;;;;;2.51;96.92;101102.31;4995981;28;20046;-80
2023/04/26 02:28:08;;;;;;;18.10;7.53;;;;;;;2.42;96.98;101106.28;4995529;28;20145;-80
2023/04/26 02:30:35;;;;;;;16.13;7.80;;;;;;;2.43;97.16;101110.50;4994363;28;20081;-79
2023/04/26 02:33:03;;;;;;;16.42;8.02;;;;;;;2.42;97.17;101101.09;4999346;28;20046;-80
2023/04/26 02:35:30;;;;;;;16.13;8.20;;;;;;;2.35;97.51;101111.94;4994999;28;20054;-80
2023/04/26 02:37:57;;;;;;;21.50;7.47;;;;;;;2.45;97.54;101113.84;5005406;28;20081;-79
2023/04/26 02:40:24;;;;;;;20.00;8.50;;;;;;;2.32;97.71;101106.03;4989357;28;20510;-80
2023/04/26 02:42:50;;;;;;;14.88;7.68;;;;;;;2.37;98.12;101099.72;4995430;28;20061;-80
2023/04/26 02:45:17;;;;;;;18.77;7.32;;;;;;;2.31;97.58;101095.78;4992318;28;20058;-80
2023/04/26 02:47:44;;;;;;;17.35;7.32;;;;;;;2.38;97.84;101106.53;4993761;28;20074;-80
2023/04/26 02:50:12;;;;;;;21.63;8.30;;;;;;;2.35;98.15;101104.19;5000633;28;20087;-80
2023/04/26 02:52:39;;;;;;;17.13;8.93;;;;;;;2.25;98.32;101107.31;4997588;28;20046;-80
2023/04/26 02:55:06;;;;;;;17.02;7.63;;;;;;;2.20;98.32;101103.31;5003565;28;20049;-80
2023/04/26 02:57:33;;;;;;;20.48;7.63;;;;;;;2.17;98.48;101113.84;4997297;28;20441;-80
2023/04/26 03:00:00;;;;;;;22.55;8.35;;;;;;;2.15;98.94;101095.84;4999381;28;20070;-80
2023/04/26 03:02:26;;;;;;;17.45;8.55;;;;;;;2.16;98.82;101107.00;5001254;28;20101;-80
2023/04/26 03:04:53;;;;;;;16.90;7.63;;;;;;;2.16;99.03;101107.84;4991869;28;20070;-79
2023/04/26 03:07:21;;;;;;;20.55;8.23;;;;;;;2.11;99.20;101109.84;4988502;28;20062;-80
2023/04/26 03:09:48;;;;;;;17.85;8.43;;;;;;;2.06;99.33;101101.56;4996514;28;20054;-80
2023/04/26 03:12:14;;;;;;;24.50;8.52;;;;;;;1.99;99.64;101108.81;4994196;28;20103;-80
2023/04/26 03:14:41;;;;;;;19.30;8.68;;;;;;;1.95;99.94;101098.75;5003393;28;20050;-80
2023/04/26 03:17:07;;;;;;;20.00;8.90;;;;;;;1.94;99.80;101104.84;4993924;28;20081;-79
2023/04/26 03:19:34;;;;;;;20.77;8.80;;;;;;;1.96;99.92;101105.59;5001126;28;20042;-79
2023/04/26 03:22:01;;;;;;;21.95;9.25;;;;;;;1.87;100.00;101100.97;4996545;28;20043;-80
2023/04/26 03:24:29;;;;;;;18.02;9.05;;;;;;;1.84;100.00;101106.31;4997398;28;20078;-79
2023/04/26 03:26:55;;;;;;;21.88;8.88;;;;;;;1.81;100.00;101094.44;5005553;28;20077;-81
2023/04/26 03:29:22;;;;;;;15.40;8.68;;;;;;;1.82;100.00;101092.69;5009799;28;20089;-78
2023/04/26 03:31:48;;;;;;;17.55;8.38;;;;;;;1.80;100.00;101099.66;5009210;28;20122;-79
2023/04/26 03:34:15;;;;;;;23.85;8.50;;;;;;;1.77;100.00;101092.09;5005540;28;20070;-80
2023/04/26 03:36:42;;;;;;;18.08;9.23;;;;;;;1.78;100.00;101096.34;4989013;28;20058;-79
2023/04/26 03:39:09;;;;;;;19.60;9.00;;;;;;;1.74;100.00;101085.38;4989094;28;20115;-80
2023/04/26 03:41:39;;;;;;;20.83;9.10;;;;;;;1.74;100.00;101094.88;4995462;28;20054;-80
2023/04/26 03:44:06;;;;;;;15.63;8.55;;;;;;;1.72;100.00;101099.28;5004153;28;20042;-79
2023/04/26 03:46:32;;;;;;;19.63;9.15;;;;;;;1.67;100.00;101099.53;5004450;28;20041;-78
2023/04/26 03:48:59;;;;;;;17.58;8.88;;;;;;;1.69;100.00;101102.03;4999674;28;20098;-79
2023/04/26 03:51:28;;;;;;;20.75;8.73;;;;;;;1.61;100.00;101099.88;4999209;28;20054;-79
2023/04/26 03:53:54;;;;;;;15.35;8.35;;;;;;;1.59;100.00;101091.41;5005754;28;20145;-79
2023/04/26 03:56:21;;;;;;;20.20;8.27;;;;;;;1.55;100.00;101100.22;5003623;28;20110;-79
2023/04/26 03:58:49;;;;;;;19.27;8.88;;;;;;;1.46;100.00;101093.84;5006999;28;20060;-79
2023/04/26 04:01:16;;;;;;;16.38;8.15;;;;;;;1.44;100.00;101108.56;4999567;28;20106;-78
2023/04/26 04:03:42;;;;;;;21.77;9.35;;;;;;;1.39;100.00;101105.44;5003187;28;20042;-78
2023/04/26 04:06:09;;;;;;;29.67;12.82;;;;;;;1.31;100.00;101110.19;5007093;28;20065;-79
2023/04/26 04:08:36;;;;;;;25.25;11.48;;;;;;;1.28;100.00;101107.78;4999400;28;20100;-79
2023/04/26 04:11:02;;;;;;;17.13;9.95;;;;;;;1.27;100.00;101103.53;5007110;28;20047;-78
2023/04/26 04:13:29;;;;;;;19.70;8.48;;;;;;;1.24;100.00;101106.28;4997526;28;20108;-78
2023/04/26 04:15:57;;;;;;;20.42;8.73;;;;;;;1.23;100.00;101107.19;5000242;28;20149;-79
2023/04/26 04:18:23;;;;;;;15.90;8.27;;;;;;;1.21;100.00;101106.44;5004375;28;20046;-78
2023/04/26 04:20:50;;;;;;;18.88;10.05;;;;;;;1.24;100.00;101106.28;4995753;28;20081;-79
2023/04/26 04:23:17;;;;;;;19.95;9.30;;;;;;;1.26;100.00;101113.03;5005299;28;20049;-77
2023/04/26 04:25:44;;;;;;;21.10;9.07;;;;;;;1.25;100.00;101120.84;4996809;28;20065;-79
2023/04/26 04:28:11;;;;;;;21.60;9.60;;;;;;;1.27;100.00;101131.91;5002590;28;20030;-79
2023/04/26 04:30:38;;;;;;;16.67;8.60;;;;;;;1.33;100.00;101123.81;4997741;28;20060;-80
2023/04/26 04:33:06;;;;;;;20.15;8.63;;;;;;;1.38;100.00;101124.41;4998219;28;20073;-80
2023/04/26 04:35:33;;;;;;;18.83;9.68;;;;;;;1.40;100.00;101122.56;5007186;28;20047;-80
2023/04/26 04:38:00;;;;;;;20.10;9.80;;;;;;;1.54;100.00;101120.03;4999032;28;20041;-81
2023/04/26 04:40:27;;;;;;;18.55;9.57;;;;;;;1.60;100.00;101124.84;5002165;28;20074;-80
2023/04/26 04:42:54;;;;;;;16.92;9.65;;;;;;;1.70;100.00;101126.91;4998138;28;20062;-80
2023/04/26 04:45:21;;;;;;;21.88;10.43;;;;;;;1.82;100.00;101121.06;4998066;28;20043;-79
2023/04/26 04:47:48;;;;;;;22.05;10.40;;;;;;;1.92;100.00;101124.75;4997337;28;20051;-79
2023/04/26 04:50:16;;;;;;;21.70;10.95;;;;;;;1.96;100.00;101128.81;4996520;28;20054;-79
2023/04/26 04:52:43;;;;;;;25.27;10.13;;;;;;;2.06;100.00;101126.53;4996382;28;20070;-77
2023/04/26 04:55:09;;;;;;;21.75;10.93;;;;;;;2.08;100.00;101128.09;4996900;28;20031;-80
2023/04/26 04:57:36;;;;;;;24.35;10.60;;;;;;;2.08;100.00;101132.44;4996296;28;20054;-81
2023/04/26 05:00:07;;;;;;;25.85;10.73;;;;;;;2.12;100.00;101132.19;5007033;28;20042;-79
2023/04/26 05:02:34;;;;;;;20.55;11.25;;;;;;;2.27;100.00;101141.59;4999462;28;20082;-79
2023/04/26 05:05:01;;;;;;;24.00;10.40;;;;;;;2.41;100.00;101153.69;4997916;28;20083;-79
2023/04/26 05:07:29;;;;;;;18.83;9.75;;;;;;;2.37;99.71;101141.88;4993192;28;20046;-80
2023/04/26 05:09:56;;;;;;;21.15;10.43;;;;;;;2.58;99.21;101142.34;5001789;28;20117;-79
2023/04/26 05:12:23;;;;;;;16.83;10.88;;;;;;;2.69;98.46;101141.72;4994510;28;20057;-79
2023/04/26 05:14:49;;;;;;;25.00;11.45;;;;;;;2.88;98.26;101147.41;4991946;28;20047;-79
2023/04/26 05:17:16;;;;;;;24.60;11.75;;;;;;;3.07;97.88;101147.09;4992822;28;20069;-79
2023/04/26 05:19:42;;;;;;;25.73;12.10;;;;;;;3.25;96.95;101156.31;4993163;28;20054;-79
2023/04/26 05:22:09;;;;;;;26.48;11.13;;;;;;;3.48;96.95;101162.59;5000280;28;20424;-79
2023/04/26 05:24:37;;;;;;;29.55;11.98;;;;;;;3.88;95.82;101166.03;4998747;28;20409;-79
2023/04/26 05:27:04;;;;;;;32.85;12.05;;;;;;;4.34;94.16;101172.41;5001253;28;20070;-80
2023/04/26 05:29:31;;;;;;;22.33;9.52;;;;;;;5.33;92.97;101172.50;4987650;28;20050;-80
2023/04/26 05:31:57;;;;;;;20.15;10.80;;;;;;;6.39;89.22;101170.78;4994425;28;20086;-81
2023/04/26 05:34:24;;;;;;;20.13;9.55;;;;;;;7.72;84.79;101153.34;4987510;28;20139;-79
2023/04/26 05:36:51;;;;;;;19.48;9.43;;;;;;;8.67;80.19;101141.03;4989424;28;20051;-79
2023/04/26 05:39:20;;;;;;;21.38;9.00;;;;;;;9.07;76.23;101135.81;4986679;28;20058;-79
2023/04/26 05:41:48;;;;;;;15.05;8.82;;;;;;;9.55;74.16;101134.09;4992622;28;20042;-80
2023/04/26 05:44:15;;;;;;;17.35;8.30;;;;;;;9.72;72.50;101131.75;4990495;28;20070;-79
2023/04/26 05:46:42;;;;;;;17.70;9.05;;;;;;;9.64;71.54;101125.44;4998601;28;20536;-79
2023/04/26 05:49:08;;;;;;;15.30;9.30;;;;;;;9.74;70.63;101129.84;4990844;28;20047;-78
2023/04/26 05:51:35;;;;;;;20.25;10.45;;;;;;;9.74;70.87;101143.72;4989429;28;20082;-79
2023/04/26 05:54:01;;;;;;;17.13;10.32;;;;;;;10.11;70.28;101145.59;4988786;28;20378;-79
2023/04/26 05:56:28;;;;;;;16.17;9.68;;;;;;;10.34;69.02;101146.97;4989340;28;20081;-79
2023/04/26 05:58:56;;;;;;;18.20;9.73;;;;;;;10.08;69.36;101138.03;4988526;28;20089;-79
2023/04/26 06:01:23;;;;;;;19.25;9.85;;;;;;;11.06;68.20;101145.41;4984259;28;20050;-80
2023/04/26 06:03:50;;;;;;;20.80;10.25;;;;;;;11.35;67.04;101138.19;4984105;28;20078;-79
2023/04/26 06:06:17;;;;;;;23.45;10.30;;;;;;;11.85;65.82;101145.56;4980677;28;20046;-80
2023/04/26 06:08:44;;;;;;;16.98;10.38;;;;;;;12.01;64.77;101140.44;4985238;28;20068;-79
2023/04/26 06:11:11;;;;;;;20.02;11.15;;;;;;;12.02;64.76;101128.97;4979140;28;20054;-81
2023/04/26 06:13:37;;;;;;;21.23;12.10;;;;;;;11.78;65.15;101144.53;4986115;28;20105;-81
2023/04/26 06:16:06;;;;;;;23.60;10.88;;;;;;;11.38;65.75;101153.63;4980664;28;20363;-81
2023/04/26 06:18:32;;;;;;;19.02;11.07;;;;;;;11.86;65.57;101161.13;4980424;28;20054;-80
2023/04/26 06:21:02;;;;;;;19.52;11.23;;;;;;;11.98;65.11;101156.47;4979504;28;20141;-80
2023/04/26 06:23:28;;;;;;;21.08;12.65;;;;;;;12.56;63.57;101155.88;4982582;28;20047;-82
2023/04/26 06:25:55;;;;;;;24.55;12.30;;;;;;;12.84;62.80;101149.44;4991594;28;20051;-82
2023/04/26 06:28:22;;;;;;;19.00;11.65;;;;;;;13.04;62.25;101155.28;4987929;28;20096;-82
2023/04/26 06:30:48;;;;;;;20.98;11.52;;;;;;;13.09;61.61;101154.78;4991098;28;20051;-79
2023/04/26 06:33:16;;;;;;;20.77;11.38;;;;;;;13.48;61.69;101155.91;4995027;28;20046;-80
2023/04/26 06:35:45;;;;;;;19.35;10.90;;;;;;;12.00;62.15;101159.78;4980114;28;20086;-82
2023/04/26 06:38:12;;;;;;;19.02;9.95;;;;;;;12.18;63.27;101165.81;4980851;28;20053;-80
2023/04/26 06:40:39;;;;;;;16.65;10.75;;;;;;;12.11;64.47;101177.06;4979471;28;20047;-80
2023/04/26 06:43:05;;;;;;;19.30;12.30;;;;;;;11.54;64.36;101169.50;4981211;28;20051;-80
2023/04/26 06:45:32;;;;;;;19.02;10.75;;;;;;;11.93;65.68;101167.44;4979726;28;20078;-79
2023/04/26 06:48:00;;;;;;;31.48;20.83;;;;;;;12.58;64.21;101167.03;5015314;23;20081;-79
2023/04/26 06:50:28;;;;;;;20.80;10.48;;;;;;;12.70;63.46;101163.19;5001411;28;20050;-79
2023/04/26 06:52:55;;;;;;;21.40;10.65;;;;;;;12.92;62.63;101162.59;4981242;28;20078;-80
2023/04/26 06:55:25;;;;;;;22.92;10.20;;;;;;;13.27;61.59;101150.25;5019699;28;20054;-80
2023/04/26 06:57:56;;;;;;;23.77;10.55;;;;;;;12.58;61.73;101139.00;4994250;28;20081;-80
2023/04/26 07:00:30;;;;;;;18.75;9.10;;;;;;;12.85;61.34;101145.00;4979521;28;20128;-81
2023/04/26 07:03:00;;;;;;;21.55;9.45;;;;;;;12.56;61.27;101145.38;4996852;28;20061;-80
2023/04/26 07:05:32;;;;;;;18.63;9.63;;;;;;;11.72;61.90;101150.34;4993399;28;20125;-80
2023/04/26 07:08:06;;;;;;;18.92;9.52;;;;;;;12.18;62.40;101168.44;5000351;28;20061;-79
2023/04/26 07:10:37;;;;;;;19.48;9.82;;;;;;;11.45;63.45;101159.91;4989313;28;20069;-81
2023/04/26 07:13:08;;;;;;;18.50;9.60;;;;;;;11.74;62.64;101154.47;4994544;28;20432;-82
2023/04/26 07:15:39;;;;;;;17.63;9.27;;;;;;;11.55;63.18;101165.91;4989068;28;20043;-81
2023/04/26 07:18:05;;;;;;;20.08;8.88;;;;;;;11.25;62.97;101163.66;4991451;28;20050;-80
2023/04/26 07:20:33;;;;;;;18.70;8.65;;;;;;;11.16;63.52;101164.53;4993771;28;20073;-79
2023/04/26 07:23:00;;;;;;;20.83;8.77;;;;;;;11.41;64.17;101160.34;4991552;28;20142;-79
2023/04/26 07:25:26;;;;;;;17.02;9.73;;;;;;;11.88;63.76;101160.97;4992574;28;20471;-79
2023/04/26 07:27:53;;;;;;;19.05;9.52;;;;;;;12.40;62.53;101156.59;4992762;28;20050;-79
2023/04/26 07:30:20;;;;;;;16.73;8.55;;;;;;;12.42;61.78;101159.91;4994213;28;20145;-79
2023/04/26 07:32:46;;;;;;;17.58;8.55;;;;;;;12.20;62.43;101156.00;4991976;28;20058;-79
2023/04/26 07:35:14;;;;;;;16.17;8.50;;;;;;;11.83;62.56;101165.84;4985473;28;20154;-79
2023/04/26 07:37:43;;;;;;;16.48;7.85;;;;;;;11.67;62.85;101165.69;4992750;28;20118;-79
2023/04/26 07:40:12;;;;;;;11.55;7.15;;;;;;;11.80;61.68;101158.31;4992552;28;20146;-78
2023/04/26 07:42:39;;;;;;;20.92;7.68;;;;;;;11.83;62.42;101163.22;4988884;28;20220;-78
2023/04/26 07:45:07;;;;;;;17.15;9.00;;;;;;;11.79;63.15;101165.38;4991581;28;20054;-78
2023/04/26 07:47:34;;;;;;;21.77;12.80;;;;;;;11.41;64.40;101169.03;4996941;28;20064;-79
2023/04/26 07:50:00;;;;;;;18.17;9.15;;;;;;;11.24;63.74;101162.84;4995978;28;20125;-78
2023/04/26 07:52:27;;;;;;;28.65;13.90;;;;;;;11.48;63.93;101174.53;4996720;28;20134;-79
2023/04/26 07:54:55;;;;;;;14.57;8.10;;;;;;;11.36;63.03;101165.22;4996041;28;20065;-78
2023/04/26 07:57:21;;;;;;;17.52;9.10;;;;;;;11.40;63.25;101167.41;4995454;28;20054;-79
2023/04/26 07:59:48;;;;;;;15.95;9.27;;;;;;;10.94;63.96;101158.69;4996511;28;20155;-78
2023/04/26 08:02:15;;;;;;;16.50;9.02;;;;;;;10.96;64.50;101164.63;4987633;28;20115;-79
2023/04/26 08:04:48;;;;;;;14.25;7.97;;;;;;;10.91;63.83;101153.75;4987202;28;20504;-78
2023/04/26 08:07:14;;;;;;;12.57;8.20;;;;;;;11.51;62.49;101142.78;4994141;28;20528;-78
2023/04/26 08:09:41;;;;;;;17.85;10.20;;;;;;;11.92;61.42;101138.72;4976802;28;20080;-78
2023/04/26 08:12:09;;;;;;;15.98;8.30;;;;;;;12.20;60.72;101142.06;4987346;28;20054;-78
2023/04/26 08:14:36;;;;;;;11.38;6.65;;;;;;;11.62;61.43;101153.03;4987422;28;20075;-78
2023/04/26 08:17:02;;;;;;;16.35;6.82;;;;;;;11.60;61.86;101155.00;4984463;28;20074;-78
2023/04/26 08:19:31;;;;;;;11.10;6.95;;;;;;;11.97;61.23;101154.84;4983459;28;20217;-78
2023/04/26 08:21:58;;;;;;;17.33;7.18;;;;;;;12.17;61.09;101142.38;4980666;28;20517;-78
2023/04/26 08:24:24;;;;;;;14.85;6.95;;;;;;;12.51;60.11;101145.03;4973901;28;20117;-79
2023/04/26 08:26:51;;;;;;;18.83;7.43;;;;;;;12.46;60.34;101149.91;4986808;28;20129;-78
2023/04/26 08:29:19;;;;;;;18.05;7.10;;;;;;;11.75;60.32;101145.63;4988347;28;20233;-77
2023/04/26 08:31:46;;;;;;;17.65;6.65;;;;;;;12.39;59.62;101135.75;4968798;28;20109;-77
2023/04/26 08:34:13;;;;;;;12.90;6.63;;;;;;;12.67;58.68;101131.97;4971379;28;20057;-78
2023/04/26 08:36:40;;;;;;;12.00;6.10;;;;;;;12.53;58.27;101132.56;4969022;28;20486;-77
2023/04/26 08:39:07;;;;;;;11.60;6.50;;;;;;;12.35;58.97;101137.88;4972324;28;20051;-78
2023/04/26 08:41:40;;;;;;;17.90;7.78;;;;;;;12.23;59.41;101150.44;4970814;28;20078;-77
2023/04/26 08:44:08;;;;;;;20.38;7.60;;;;;;;11.78;59.67;101145.38;4970344;28;20521;-77
2023/04/26 08:46:44;;;;;;;16.98;6.38;;;;;;;11.30;58.72;101130.81;4974068;28;20478;-77
2023/04/26 08:49:21;;;;;;;13.93;7.13;;;;;;;11.36;59.53;101146.88;4972463;28;20047;-77
2023/04/26 08:51:49;;;;;;;14.90;7.38;;;;;;;11.66;59.20;101143.09;4970525;28;20157;-76
2023/04/26 08:54:17;;;;;;;16.77;8.32;;;;;;;12.47;59.44;101138.44;4973529;28;20057;-77
2023/04/26 08:56:44;;;;;;;15.13;7.40;;;;;;;12.43;58.94;101135.28;4969522;28;20042;-77
2023/04/26 08:59:11;;;;;;;17.02;7.43;;;;;;;11.84;58.37;101138.66;4971256;28;20050;-76
2023/04/26 09:01:43;;;;;;;14.20;7.47;;;;;;;11.38;59.31;101148.38;4971396;28;20054;-76
2023/04/26 09:04:11;;;;;;;12.65;6.68;;;;;;;11.05;60.12;101149.00;4970843;28;20521;-75
2023/04/26 09:06:38;;;;;;;15.27;6.57;;;;;;;11.20;60.70;101161.47;4971127;28;20047;-75
2023/04/26 09:09:08;;;;;;;15.43;6.05;;;;;;;12.19;59.35;101151.72;4969667;28;20078;-76
2023/04/26 09:11:54;;;;;;;16.75;6.38;;;;;;;12.30;58.46;101145.38;4967725;28;20423;-76
2023/04/26 09:14:20;;;;;;;14.38;6.18;;;;;;;12.79;57.18;101130.69;4972107;28;20051;-76
2023/04/26 09:16:48;;;;;;;13.40;6.13;;;;;;;12.21;56.23;101126.16;4976031;28;20137;-76
2023/04/26 09:19:15;;;;;;;15.27;5.15;;;;;;;12.88;55.34;101121.88;4974290;28;20507;-76
2023/04/26 09:21:46;;;;;;;9.07;5.28;;;;;;;13.17;53.80;101115.44;4972847;28;20142;-77
2023/04/26 09:24:14;;;;;;;19.55;9.30;;;;;;;12.62;53.61;101114.06;4973543;28;20513;-77
2023/04/26 09:26:40;;;;;;;15.55;4.90;;;;;;;12.43;53.02;101101.19;4974353;28;20058;-77
2023/04/26 09:29:15;;;;;;;14.80;4.60;;;;;;;11.98;53.79;101118.94;4972965;28;20792;-76
2023/04/26 09:31:43;;;;;;;9.70;4.65;;;;;;;12.44;53.83;101113.31;4970142;28;20074;-76
2023/04/26 09:34:12;;;;;;;11.85;5.13;;;;;;;13.01;52.92;101104.84;4970288;28;20379;-76
2023/04/26 09:36:49;;;;;;;14.65;5.53;;;;;;;12.85;53.13;101113.50;4970346;28;20053;-78
2023/04/26 09:39:30;;;;;;;11.20;5.40;;;;;;;12.48;55.03;101119.09;4971643;28;20057;-78
2023/04/26 09:41:57;;;;;;;14.00;6.03;;;;;;;11.80;56.68;101127.69;4973570;28;20512;-79
2023/04/26 09:44:26;;;;;;;12.80;5.60;;;;;;;11.90;56.83;101124.94;4983894;28;20079;-78
2023/04/26 09:47:00;;;;;;;15.48;6.00;;;;;;;11.40;57.56;101127.25;4983901;28;20151;-78
2023/04/26 09:49:29;;;;;;;14.20;5.45;;;;;;;11.41;56.60;101121.88;4976247;28;20106;-79
2023/04/26 09:52:06;;;;;;;9.07;5.10;;;;;;;11.58;55.52;101102.72;4970958;28;20549;-78
2023/04/26 09:54:44;;;;;;;11.07;5.18;;;;;;;11.79;55.66;101112.09;4970492;28;20506;-77
2023/04/26 09:57:11;;;;;;;12.52;5.43;;;;;;;11.78;54.68;101103.41;4969560;28;20431;-77
2023/04/26 09:59:46;;;;;;;9.88;4.82;;;;;;;11.55;54.68;101096.94;4976203;28;20409;-77
2023/04/26 10:02:18;;;;;;;12.35;4.80;;;;;;;11.49;54.42;101098.38;4962543;28;20134;-78
2023/04/26 10:04:49;;;;;;;11.35;5.18;;;;;;;12.12;55.92;101108.72;4967717;28;20125;-77
2023/04/26 10:07:17;;;;;;;10.57;5.53;;;;;;;11.53;55.46;101097.09;4973713;28;20070;-78
2023/04/26 10:09:44;;;;;;;11.27;4.80;;;;;;;11.53;55.67;101112.81;4978675;28;20134;-78
2023/04/26 10:12:12;;;;;;;11.65;5.45;;;;;;;11.85;55.04;101112.28;4967935;28;20051;-77
2023/04/26 10:14:39;;;;;;;10.65;5.25;;;;;;;12.43;55.20;101100.34;4966501;28;20126;-78
2023/04/26 10:17:06;;;;;;;8.32;5.45;;;;;;;12.45;54.51;101086.09;4970989;28;20072;-78
2023/04/26 10:19:34;;;;;;;12.85;5.47;;;;;;;12.63;54.71;101093.91;4972629;28;20054;-78
2023/04/26 10:22:06;;;;;;;13.32;5.65;;;;;;;12.70;54.50;101097.53;4970400;28;20539;-78
2023/04/26 10:24:35;;;;;;;13.50;5.40;;;;;;;12.90;52.99;101091.03;4970799;28;20101;-78
2023/04/26 10:27:03;;;;;;;12.07;5.32;;;;;;;12.87;52.76;101086.09;4967622;28;20062;-77
2023/04/26 10:30:09;;;;;;;12.43;5.55;;;;;;;12.20;53.97;101097.47;4972680;28;20081;-78
2023/04/26 10:33:05;;;;;;;10.02;5.13;;;;;;;12.40;53.47;101085.75;4966988;28;20050;-79
2023/04/26 10:35:36;;;;;;;11.32;5.93;;;;;;;11.76;53.72;101099.25;4975430;28;20065;-78
2023/04/26 10:38:11;;;;;;;12.23;5.50;;;;;;;12.04;53.23;101087.69;4970873;28;20054;-77
2023/04/26 10:40:39;;;;;;;8.48;4.90;;;;;;;12.66;51.95;101074.38;4970773;28;20050;-78
2023/04/26 10:43:27;;;;;;;10.35;4.95;;;;;;;12.48;52.24;101082.34;4971986;28;20137;-78
2023/04/26 10:45:55;;;;;;;12.70;6.20;;;;;;;12.30;53.32;101098.97;4973804;28;20055;-78
2023/04/26 10:48:28;;;;;;;9.38;5.75;;;;;;;12.01;53.71;101098.47;4972060;28;20106;-78
2023/04/26 10:51:11;;;;;;;;;;;;;;;12.44;52.96;101083.63;4972726;28;20142;-78
2023/04/26 10:54:01;;;;;;;11.45;6.03;;;;;;;12.67;52.11;101079.47;4975567;28;19921;-78
2023/04/26 10:56:52;;;;;;;8.07;5.25;;;;;;;12.85;52.73;101082.78;4967269;28;20043;-78
2023/04/26 10:59:22;;;;;;;11.82;6.35;;;;;;;13.12;52.55;101088.78;4975014;28;20450;-78
2023/04/26 11:01:49;;;;;;;11.15;5.78;;;;;;;12.88;52.55;101085.09;4969791;28;20054;-78
2023/04/26 11:04:16;;;;;;;10.57;5.90;;;;;;;12.45;52.88;101091.34;4975597;28;20052;-77
2023/04/26 11:06:50;;;;;;;9.05;5.82;;;;;;;12.04;53.16;101092.94;4975911;28;20054;-76
2023/04/26 11:09:38;;;;;;;12.52;6.00;;;;;;;12.41;53.49;101078.69;4975360;28;20058;-77
2023/04/26 11:12:06;;;;;;;10.80;5.63;;;;;;;12.47;53.24;101072.81;4974318;28;20047;-77
2023/04/26 11:14:33;;;;;;;10.35;5.50;;;;;;;12.79;52.40;101077.34;4977096;28;20043;-77
2023/04/26 11:17:03;;;;;;;11.43;5.18;;;;;;;13.18;51.77;101061.91;4969542;28;20050;-76
2023/04/26 11:19:30;;;;;;;10.60;5.30;;;;;;;13.03;50.98;101058.22;4972484;28;20047;-77
2023/04/26 11:21:56;;;;;;;11.75;5.43;;;;;;;13.30;49.24;101044.81;4974010;28;20038;-77
2023/04/26 11:24:27;;;;;;;11.63;5.43;;;;;;;13.24;50.15;101056.78;4969858;28;20331;-76
2023/04/26 11:26:55;;;;;;;8.95;5.15;;;;;;;13.40;50.40;101057.78;4964655;28;20054;-76
2023/04/26 11:29:22;;;;;;;13.30;5.40;;;;;;;13.55;50.50;101053.53;4975225;28;20141;-75
2023/04/26 11:31:52;;;;;;;7.75;5.07;;;;;;;13.41;50.27;101055.00;4971690;28;20074;-76
2023/04/26 11:34:22;;;;;;;10.20;4.82;;;;;;;13.20;48.99;101033.66;4980838;28;20059;-75